Aérodrome :
LOGIN :

S'inscrire | Disclaimer

   EN    FR    IT 

 










Légende :    VFR   VFR Marginal   IFR   IFR Intensif   IFR Très Intensif
Visi : 
Plafond : 
>= 8 km
>= 3000ft
5 à 8 km
1000 à 3000 ft
1500m à 5 km
500 à 1000 ft
800 à 1500m
200 à 500 ft
< 800m
< 200 ft
Symboles :   Orages  Brouillard  Fortes neiges  Fortes précipitations  Vent > 20 kt
SIGMETs :   Divers  Orages  Givrage  Turbulence  Onde Orograph.  Cendres Volcan.






- Altitude de l'aérodrome : 239 ft
- Code IATA : VRN


LIPX - Villafranca Int. Verona

DERNIER METAR :
  • 160950Z 21004KT 190V250 9000 BKN025 BKN050 09/05 Q1022

METARs EXPIRÉS :
  • 160920Z VRB01KT 9000 BKN020 BKN050 08/05 Q1022
  • 160850Z 34002KT 9000 BKN025 BKN050 07/05 Q1021
  • 160820Z VRB02KT 9000 SCT020 BKN040 06/05 Q1021
  • 160750Z VRB02KT 9999 BKN080 06/05 Q1021
  • 160720Z 19001KT 9999 BKN080 06/04 Q1021

TAF TAF LIPX
Valide du 16 à 09h jusqu'au 16 à 18h UTC


160800Z 1609/1618 VRB05KT 6000 SCT0025 BKN060



MET'MAP, la Météo Aéronautique d'un coup d'oeil ! - Copyright ORBIFLY Décembre 2007 - Disclaimer

ORBIFLY MET'MAP TEAM :

Programmation & Développement : Alexandra Zaïnal
Sur une idée originale de : Baudouin d'Aumeries
Assistance à la programmation : Marc-Olivier Méhu
Soutien technique & logistique : Manuel Goepfert

Contact : metmap@orbifly.com




SOURCES & CREDITS :

   NOAA